sensor_id;sensor_type;location;lat;lon;timestamp;P1;durP1;ratioP1;P2;durP2;ratioP2
43877;SDS011;29815;48.184;11.268;2022-11-14T00:01:30;24.90;;;15.00;;
43877;SDS011;29815;48.184;11.268;2022-11-14T00:04:18;60.00;;;17.58;;
43877;SDS011;29815;48.184;11.268;2022-11-14T00:07:14;50.72;;;16.27;;
43877;SDS011;29815;48.184;11.268;2022-11-14T00:10:03;31.52;;;14.93;;
43877;SDS011;29815;48.184;11.268;2022-11-14T00:12:52;33.25;;;13.48;;
43877;SDS011;29815;48.184;11.268;2022-11-14T00:15:49;25.63;;;14.45;;
43877;SDS011;29815;48.184;11.268;2022-11-14T00:18:41;32.17;;;13.77;;
43877;SDS011;29815;48.184;11.268;2022-11-14T00:21:29;31.52;;;14.90;;
43877;SDS011;29815;48.184;11.268;2022-11-14T00:24:17;24.42;;;12.98;;
43877;SDS011;29815;48.184;11.268;2022-11-14T00:27:05;41.90;;;14.20;;
43877;SDS011;29815;48.184;11.268;2022-11-14T00:29:53;29.98;;;13.88;;
43877;SDS011;29815;48.184;11.268;2022-11-14T00:32:41;24.33;;;13.23;;
43877;SDS011;29815;48.184;11.268;2022-11-14T00:35:31;41.10;;;13.90;;
43877;SDS011;29815;48.184;11.268;2022-11-14T00:38:19;43.67;;;13.40;;
43877;SDS011;29815;48.184;11.268;2022-11-14T00:41:08;21.77;;;12.65;;
43877;SDS011;29815;48.184;11.268;2022-11-14T00:43:56;54.25;;;15.10;;
43877;SDS011;29815;48.184;11.268;2022-11-14T00:46:44;20.95;;;11.63;;
43877;SDS011;29815;48.184;11.268;2022-11-14T00:49:32;30.52;;;12.82;;
43877;SDS011;29815;48.184;11.268;2022-11-14T00:52:22;22.30;;;11.60;;
43877;SDS011;29815;48.184;11.268;2022-11-14T00:55:10;20.90;;;12.40;;
43877;SDS011;29815;48.184;11.268;2022-11-14T00:57:58;33.75;;;13.45;;
43877;SDS011;29815;48.184;11.268;2022-11-14T01:00:46;32.70;;;14.55;;
43877;SDS011;29815;48.184;11.268;2022-11-14T01:03:35;50.05;;;15.00;;
43877;SDS011;29815;48.184;11.268;2022-11-14T01:06:23;47.92;;;16.17;;
43877;SDS011;29815;48.184;11.268;2022-11-14T01:09:12;27.60;;;13.10;;
43877;SDS011;29815;48.184;11.268;2022-11-14T01:12:01;35.53;;;15.30;;
43877;SDS011;29815;48.184;11.268;2022-11-14T01:14:49;32.00;;;15.40;;
43877;SDS011;29815;48.184;11.268;2022-11-14T01:17:38;36.05;;;15.88;;
43877;SDS011;29815;48.184;11.268;2022-11-14T01:20:26;25.45;;;13.18;;
43877;SDS011;29815;48.184;11.268;2022-11-14T01:23:14;37.83;;;15.90;;
43877;SDS011;29815;48.184;11.268;2022-11-14T01:26:05;23.98;;;12.18;;
43877;SDS011;29815;48.184;11.268;2022-11-14T01:31:45;16.42;;;10.63;;
43877;SDS011;29815;48.184;11.268;2022-11-14T01:34:33;24.83;;;10.85;;
43877;SDS011;29815;48.184;11.268;2022-11-14T01:37:21;26.63;;;12.20;;
43877;SDS011;29815;48.184;11.268;2022-11-14T01:40:10;17.80;;;10.23;;
43877;SDS011;29815;48.184;11.268;2022-11-14T01:43:21;19.63;;;10.60;;
43877;SDS011;29815;48.184;11.268;2022-11-14T01:46:18;26.73;;;11.70;;
43877;SDS011;29815;48.184;11.268;2022-11-14T01:52:32;42.15;;;12.27;;
43877;SDS011;29815;48.184;11.268;2022-11-14T01:55:25;22.52;;;11.75;;
43877;SDS011;29815;48.184;11.268;2022-11-14T01:58:13;23.90;;;11.40;;
43877;SDS011;29815;48.184;11.268;2022-11-14T02:01:04;26.17;;;11.52;;
43877;SDS011;29815;48.184;11.268;2022-11-14T02:03:53;39.30;;;12.27;;
43877;SDS011;29815;48.184;11.268;2022-11-14T02:06:43;15.82;;;9.32;;
43877;SDS011;29815;48.184;11.268;2022-11-14T02:09:34;25.85;;;11.02;;
43877;SDS011;29815;48.184;11.268;2022-11-14T02:12:25;18.67;;;10.93;;
43877;SDS011;29815;48.184;11.268;2022-11-14T02:15:14;31.65;;;12.90;;
43877;SDS011;29815;48.184;11.268;2022-11-14T02:18:04;33.65;;;13.25;;
43877;SDS011;29815;48.184;11.268;2022-11-14T02:20:54;24.23;;;10.77;;
43877;SDS011;29815;48.184;11.268;2022-11-14T02:23:42;22.98;;;11.38;;
43877;SDS011;29815;48.184;11.268;2022-11-14T02:26:30;20.55;;;11.00;;
43877;SDS011;29815;48.184;11.268;2022-11-14T02:29:21;16.30;;;10.82;;
43877;SDS011;29815;48.184;11.268;2022-11-14T02:32:09;33.65;;;12.07;;
43877;SDS011;29815;48.184;11.268;2022-11-14T02:34:58;27.23;;;10.68;;
43877;SDS011;29815;48.184;11.268;2022-11-14T02:37:48;28.02;;;10.90;;
43877;SDS011;29815;48.184;11.268;2022-11-14T02:40:36;61.72;;;15.00;;
43877;SDS011;29815;48.184;11.268;2022-11-14T02:43:24;24.63;;;10.55;;
43877;SDS011;29815;48.184;11.268;2022-11-14T02:46:12;18.73;;;10.88;;
43877;SDS011;29815;48.184;11.268;2022-11-14T02:49:01;54.90;;;15.23;;
43877;SDS011;29815;48.184;11.268;2022-11-14T02:51:49;40.90;;;12.25;;
43877;SDS011;29815;48.184;11.268;2022-11-14T02:54:38;38.33;;;12.57;;
43877;SDS011;29815;48.184;11.268;2022-11-14T02:57:26;25.90;;;11.52;;
43877;SDS011;29815;48.184;11.268;2022-11-14T03:00:15;39.70;;;13.45;;
43877;SDS011;29815;48.184;11.268;2022-11-14T03:03:05;24.13;;;11.10;;
43877;SDS011;29815;48.184;11.268;2022-11-14T03:05:57;74.97;;;17.02;;
43877;SDS011;29815;48.184;11.268;2022-11-14T03:08:46;51.35;;;14.05;;
43877;SDS011;29815;48.184;11.268;2022-11-14T03:11:35;36.38;;;12.55;;
43877;SDS011;29815;48.184;11.268;2022-11-14T03:14:24;35.58;;;12.27;;
43877;SDS011;29815;48.184;11.268;2022-11-14T03:17:13;23.95;;;10.43;;
43877;SDS011;29815;48.184;11.268;2022-11-14T03:20:02;22.48;;;10.98;;
43877;SDS011;29815;48.184;11.268;2022-11-14T03:22:51;20.45;;;11.68;;
43877;SDS011;29815;48.184;11.268;2022-11-14T03:25:40;19.08;;;10.63;;
43877;SDS011;29815;48.184;11.268;2022-11-14T03:28:29;32.58;;;12.93;;
43877;SDS011;29815;48.184;11.268;2022-11-14T03:31:18;39.35;;;12.40;;
43877;SDS011;29815;48.184;11.268;2022-11-14T03:34:06;28.25;;;10.73;;
43877;SDS011;29815;48.184;11.268;2022-11-14T03:36:55;21.83;;;11.98;;
43877;SDS011;29815;48.184;11.268;2022-11-14T03:39:43;24.17;;;11.40;;
43877;SDS011;29815;48.184;11.268;2022-11-14T03:42:32;19.92;;;10.57;;
43877;SDS011;29815;48.184;11.268;2022-11-14T03:45:21;15.43;;;10.35;;
43877;SDS011;29815;48.184;11.268;2022-11-14T03:48:09;14.27;;;9.90;;
43877;SDS011;29815;48.184;11.268;2022-11-14T03:50:58;18.50;;;10.55;;
43877;SDS011;29815;48.184;11.268;2022-11-14T03:53:46;15.45;;;10.75;;
43877;SDS011;29815;48.184;11.268;2022-11-14T03:56:35;14.60;;;10.65;;
43877;SDS011;29815;48.184;11.268;2022-11-14T03:59:23;27.52;;;10.82;;
43877;SDS011;29815;48.184;11.268;2022-11-14T04:02:12;15.05;;;9.57;;
43877;SDS011;29815;48.184;11.268;2022-11-14T04:05:00;18.55;;;10.93;;
43877;SDS011;29815;48.184;11.268;2022-11-14T04:07:48;15.10;;;10.07;;
43877;SDS011;29815;48.184;11.268;2022-11-14T04:10:37;15.43;;;9.68;;
43877;SDS011;29815;48.184;11.268;2022-11-14T04:13:26;12.50;;;9.80;;
43877;SDS011;29815;48.184;11.268;2022-11-14T04:16:14;10.85;;;8.70;;
43877;SDS011;29815;48.184;11.268;2022-11-14T04:19:04;12.63;;;9.00;;
43877;SDS011;29815;48.184;11.268;2022-11-14T04:21:52;11.50;;;8.52;;
43877;SDS011;29815;48.184;11.268;2022-11-14T04:24:40;12.73;;;8.50;;
43877;SDS011;29815;48.184;11.268;2022-11-14T04:27:28;12.15;;;8.68;;
43877;SDS011;29815;48.184;11.268;2022-11-14T04:30:16;26.10;;;9.35;;
43877;SDS011;29815;48.184;11.268;2022-11-14T04:33:04;12.52;;;8.45;;
43877;SDS011;29815;48.184;11.268;2022-11-14T04:35:54;19.40;;;9.15;;
43877;SDS011;29815;48.184;11.268;2022-11-14T04:38:41;15.13;;;8.70;;
43877;SDS011;29815;48.184;11.268;2022-11-14T04:41:29;14.13;;;8.13;;
43877;SDS011;29815;48.184;11.268;2022-11-14T04:44:18;13.13;;;9.55;;
43877;SDS011;29815;48.184;11.268;2022-11-14T04:47:05;44.17;;;12.60;;
43877;SDS011;29815;48.184;11.268;2022-11-14T04:49:54;53.75;;;11.57;;
43877;SDS011;29815;48.184;11.268;2022-11-14T04:52:44;47.22;;;12.15;;
43877;SDS011;29815;48.184;11.268;2022-11-14T04:55:32;47.97;;;12.60;;
43877;SDS011;29815;48.184;11.268;2022-11-14T04:58:20;39.80;;;11.40;;
43877;SDS011;29815;48.184;11.268;2022-11-14T05:01:08;44.40;;;11.20;;
43877;SDS011;29815;48.184;11.268;2022-11-14T05:03:57;26.95;;;10.18;;
43877;SDS011;29815;48.184;11.268;2022-11-14T05:06:45;30.73;;;9.82;;
43877;SDS011;29815;48.184;11.268;2022-11-14T05:09:35;29.40;;;11.57;;
43877;SDS011;29815;48.184;11.268;2022-11-14T05:12:23;31.27;;;10.35;;
43877;SDS011;29815;48.184;11.268;2022-11-14T05:15:11;50.40;;;12.32;;
43877;SDS011;29815;48.184;11.268;2022-11-14T05:17:59;23.30;;;9.25;;
43877;SDS011;29815;48.184;11.268;2022-11-14T05:20:47;46.38;;;11.07;;
43877;SDS011;29815;48.184;11.268;2022-11-14T05:23:34;28.48;;;8.77;;
43877;SDS011;29815;48.184;11.268;2022-11-14T05:26:24;42.60;;;9.80;;
43877;SDS011;29815;48.184;11.268;2022-11-14T05:29:12;18.25;;;7.97;;
43877;SDS011;29815;48.184;11.268;2022-11-14T05:32:01;23.27;;;7.85;;
43877;SDS011;29815;48.184;11.268;2022-11-14T05:34:49;59.67;;;13.80;;
43877;SDS011;29815;48.184;11.268;2022-11-14T05:37:37;21.85;;;7.53;;
43877;SDS011;29815;48.184;11.268;2022-11-14T05:40:25;30.20;;;7.88;;
43877;SDS011;29815;48.184;11.268;2022-11-14T05:43:14;33.40;;;9.13;;
43877;SDS011;29815;48.184;11.268;2022-11-14T05:46:04;15.68;;;7.20;;
43877;SDS011;29815;48.184;11.268;2022-11-14T05:48:56;21.07;;;7.10;;
43877;SDS011;29815;48.184;11.268;2022-11-14T05:51:44;7.55;;;5.60;;
43877;SDS011;29815;48.184;11.268;2022-11-14T05:54:32;11.85;;;5.40;;
43877;SDS011;29815;48.184;11.268;2022-11-14T05:57:20;18.58;;;5.93;;
43877;SDS011;29815;48.184;11.268;2022-11-14T06:00:10;6.95;;;5.15;;
43877;SDS011;29815;48.184;11.268;2022-11-14T06:03:00;22.77;;;6.55;;
43877;SDS011;29815;48.184;11.268;2022-11-14T06:05:48;21.98;;;6.95;;
43877;SDS011;29815;48.184;11.268;2022-11-14T06:08:36;15.27;;;6.10;;
43877;SDS011;29815;48.184;11.268;2022-11-14T06:11:25;31.92;;;9.00;;
43877;SDS011;29815;48.184;11.268;2022-11-14T06:14:13;12.15;;;5.53;;
43877;SDS011;29815;48.184;11.268;2022-11-14T06:17:03;9.25;;;6.13;;
43877;SDS011;29815;48.184;11.268;2022-11-14T06:19:51;16.83;;;5.55;;
43877;SDS011;29815;48.184;11.268;2022-11-14T06:22:39;12.48;;;6.10;;
43877;SDS011;29815;48.184;11.268;2022-11-14T06:25:28;16.10;;;6.00;;
43877;SDS011;29815;48.184;11.268;2022-11-14T06:28:16;8.35;;;5.50;;
43877;SDS011;29815;48.184;11.268;2022-11-14T06:31:04;7.72;;;6.07;;
43877;SDS011;29815;48.184;11.268;2022-11-14T06:33:54;12.82;;;5.97;;
43877;SDS011;29815;48.184;11.268;2022-11-14T06:36:43;14.13;;;6.53;;
43877;SDS011;29815;48.184;11.268;2022-11-14T06:39:31;16.58;;;7.32;;
43877;SDS011;29815;48.184;11.268;2022-11-14T06:42:19;7.80;;;6.63;;
43877;SDS011;29815;48.184;11.268;2022-11-14T06:45:07;13.38;;;7.47;;
43877;SDS011;29815;48.184;11.268;2022-11-14T06:47:57;8.50;;;7.03;;
43877;SDS011;29815;48.184;11.268;2022-11-14T06:50:51;13.13;;;7.35;;
43877;SDS011;29815;48.184;11.268;2022-11-14T06:53:40;11.15;;;8.07;;
43877;SDS011;29815;48.184;11.268;2022-11-14T06:56:29;12.93;;;8.52;;
43877;SDS011;29815;48.184;11.268;2022-11-14T06:59:17;12.32;;;7.50;;
43877;SDS011;29815;48.184;11.268;2022-11-14T07:02:05;16.70;;;10.45;;
43877;SDS011;29815;48.184;11.268;2022-11-14T07:05:06;20.08;;;8.73;;
43877;SDS011;29815;48.184;11.268;2022-11-14T07:07:57;10.85;;;7.25;;
43877;SDS011;29815;48.184;11.268;2022-11-14T07:10:45;13.20;;;7.55;;
43877;SDS011;29815;48.184;11.268;2022-11-14T07:13:33;31.35;;;11.65;;
43877;SDS011;29815;48.184;11.268;2022-11-14T07:16:23;25.58;;;10.52;;
43877;SDS011;29815;48.184;11.268;2022-11-14T07:19:14;29.70;;;9.70;;
43877;SDS011;29815;48.184;11.268;2022-11-14T07:22:02;15.10;;;9.32;;
43877;SDS011;29815;48.184;11.268;2022-11-14T07:24:52;13.98;;;8.15;;
43877;SDS011;29815;48.184;11.268;2022-11-14T07:27:40;11.95;;;8.00;;
43877;SDS011;29815;48.184;11.268;2022-11-14T07:30:28;16.23;;;8.32;;
43877;SDS011;29815;48.184;11.268;2022-11-14T07:33:16;18.95;;;7.28;;
43877;SDS011;29815;48.184;11.268;2022-11-14T07:36:04;16.15;;;7.97;;
43877;SDS011;29815;48.184;11.268;2022-11-14T07:38:54;43.55;;;10.85;;
43877;SDS011;29815;48.184;11.268;2022-11-14T07:41:44;8.82;;;6.57;;
43877;SDS011;29815;48.184;11.268;2022-11-14T07:44:32;14.57;;;7.45;;
43877;SDS011;29815;48.184;11.268;2022-11-14T07:47:20;88.10;;;13.55;;
43877;SDS011;29815;48.184;11.268;2022-11-14T07:50:08;74.55;;;12.77;;
43877;SDS011;29815;48.184;11.268;2022-11-14T07:53:04;48.63;;;9.48;;
43877;SDS011;29815;48.184;11.268;2022-11-14T07:55:52;37.65;;;8.75;;
43877;SDS011;29815;48.184;11.268;2022-11-14T07:58:42;14.80;;;7.50;;
43877;SDS011;29815;48.184;11.268;2022-11-14T08:01:30;9.32;;;6.15;;
43877;SDS011;29815;48.184;11.268;2022-11-14T08:04:18;10.15;;;6.72;;
43877;SDS011;29815;48.184;11.268;2022-11-14T08:07:06;13.05;;;6.75;;
43877;SDS011;29815;48.184;11.268;2022-11-14T08:09:54;10.32;;;6.55;;
43877;SDS011;29815;48.184;11.268;2022-11-14T08:12:43;13.02;;;6.13;;
43877;SDS011;29815;48.184;11.268;2022-11-14T08:15:32;9.85;;;5.93;;
43877;SDS011;29815;48.184;11.268;2022-11-14T08:18:20;14.32;;;6.90;;
43877;SDS011;29815;48.184;11.268;2022-11-14T08:21:09;11.45;;;6.35;;
43877;SDS011;29815;48.184;11.268;2022-11-14T08:23:57;8.70;;;6.45;;
43877;SDS011;29815;48.184;11.268;2022-11-14T08:26:45;11.93;;;6.50;;
43877;SDS011;29815;48.184;11.268;2022-11-14T08:29:33;10.00;;;6.78;;
43877;SDS011;29815;48.184;11.268;2022-11-14T08:32:23;12.00;;;8.23;;
43877;SDS011;29815;48.184;11.268;2022-11-14T08:35:11;10.70;;;8.23;;
43877;SDS011;29815;48.184;11.268;2022-11-14T08:37:59;12.13;;;8.27;;
43877;SDS011;29815;48.184;11.268;2022-11-14T08:40:47;14.82;;;8.90;;
43877;SDS011;29815;48.184;11.268;2022-11-14T08:43:35;11.13;;;7.63;;
43877;SDS011;29815;48.184;11.268;2022-11-14T08:46:24;11.05;;;7.55;;
43877;SDS011;29815;48.184;11.268;2022-11-14T08:49:14;9.77;;;6.97;;
43877;SDS011;29815;48.184;11.268;2022-11-14T08:52:02;9.18;;;7.10;;
43877;SDS011;29815;48.184;11.268;2022-11-14T08:54:52;9.40;;;7.93;;
43877;SDS011;29815;48.184;11.268;2022-11-14T08:57:40;9.30;;;7.85;;
43877;SDS011;29815;48.184;11.268;2022-11-14T09:00:34;9.55;;;7.05;;
43877;SDS011;29815;48.184;11.268;2022-11-14T09:03:22;9.77;;;8.77;;
43877;SDS011;29815;48.184;11.268;2022-11-14T09:06:12;8.15;;;6.60;;
43877;SDS011;29815;48.184;11.268;2022-11-14T09:09:00;8.57;;;7.68;;
43877;SDS011;29815;48.184;11.268;2022-11-14T09:11:48;8.50;;;7.25;;
43877;SDS011;29815;48.184;11.268;2022-11-14T09:14:36;9.48;;;7.88;;
43877;SDS011;29815;48.184;11.268;2022-11-14T09:17:24;9.98;;;8.25;;
43877;SDS011;29815;48.184;11.268;2022-11-14T09:20:13;12.35;;;9.45;;
43877;SDS011;29815;48.184;11.268;2022-11-14T09:23:03;12.82;;;9.40;;
43877;SDS011;29815;48.184;11.268;2022-11-14T09:25:51;10.77;;;8.32;;
43877;SDS011;29815;48.184;11.268;2022-11-14T09:28:42;13.20;;;9.23;;
43877;SDS011;29815;48.184;11.268;2022-11-14T09:31:31;12.20;;;9.27;;
43877;SDS011;29815;48.184;11.268;2022-11-14T09:34:19;13.68;;;8.85;;
43877;SDS011;29815;48.184;11.268;2022-11-14T09:37:07;11.88;;;9.60;;
43877;SDS011;29815;48.184;11.268;2022-11-14T09:39:57;11.38;;;10.10;;
43877;SDS011;29815;48.184;11.268;2022-11-14T09:42:51;12.88;;;9.20;;
43877;SDS011;29815;48.184;11.268;2022-11-14T09:46:08;15.32;;;11.27;;
43877;SDS011;29815;48.184;11.268;2022-11-14T09:49:08;13.75;;;10.88;;
43877;SDS011;29815;48.184;11.268;2022-11-14T09:52:14;14.45;;;10.73;;
43877;SDS011;29815;48.184;11.268;2022-11-14T09:55:16;15.55;;;11.07;;
43877;SDS011;29815;48.184;11.268;2022-11-14T09:58:09;15.65;;;9.88;;
43877;SDS011;29815;48.184;11.268;2022-11-14T10:01:05;11.05;;;9.85;;
43877;SDS011;29815;48.184;11.268;2022-11-14T10:04:02;11.57;;;9.57;;
43877;SDS011;29815;48.184;11.268;2022-11-14T10:07:02;13.23;;;9.43;;
43877;SDS011;29815;48.184;11.268;2022-11-14T10:10:05;10.55;;;8.75;;
43877;SDS011;29815;48.184;11.268;2022-11-14T10:13:11;10.70;;;8.02;;
43877;SDS011;29815;48.184;11.268;2022-11-14T10:16:14;10.77;;;8.75;;
43877;SDS011;29815;48.184;11.268;2022-11-14T10:19:12;11.40;;;8.75;;
43877;SDS011;29815;48.184;11.268;2022-11-14T10:22:16;9.13;;;7.93;;
43877;SDS011;29815;48.184;11.268;2022-11-14T10:25:34;11.15;;;9.23;;
43877;SDS011;29815;48.184;11.268;2022-11-14T10:28:40;9.77;;;8.55;;
43877;SDS011;29815;48.184;11.268;2022-11-14T10:31:44;12.00;;;9.75;;
43877;SDS011;29815;48.184;11.268;2022-11-14T10:34:44;12.02;;;8.68;;
43877;SDS011;29815;48.184;11.268;2022-11-14T10:37:40;10.05;;;8.77;;
43877;SDS011;29815;48.184;11.268;2022-11-14T10:43:38;9.32;;;7.53;;
43877;SDS011;29815;48.184;11.268;2022-11-14T10:46:31;10.17;;;7.63;;
43877;SDS011;29815;48.184;11.268;2022-11-14T10:49:24;9.57;;;6.40;;
43877;SDS011;29815;48.184;11.268;2022-11-14T10:52:17;7.70;;;6.50;;
43877;SDS011;29815;48.184;11.268;2022-11-14T10:55:13;8.02;;;7.22;;
43877;SDS011;29815;48.184;11.268;2022-11-14T10:58:08;8.30;;;6.63;;
43877;SDS011;29815;48.184;11.268;2022-11-14T11:04:24;7.05;;;6.15;;
43877;SDS011;29815;48.184;11.268;2022-11-14T11:07:20;7.55;;;6.85;;
43877;SDS011;29815;48.184;11.268;2022-11-14T11:10:30;7.60;;;6.72;;
43877;SDS011;29815;48.184;11.268;2022-11-14T11:13:46;7.82;;;6.90;;
43877;SDS011;29815;48.184;11.268;2022-11-14T11:16:41;9.15;;;7.18;;
43877;SDS011;29815;48.184;11.268;2022-11-14T11:19:29;8.48;;;7.25;;
43877;SDS011;29815;48.184;11.268;2022-11-14T11:22:24;8.05;;;7.25;;
43877;SDS011;29815;48.184;11.268;2022-11-14T11:25:21;7.75;;;6.95;;
43877;SDS011;29815;48.184;11.268;2022-11-14T11:28:14;8.10;;;7.30;;
43877;SDS011;29815;48.184;11.268;2022-11-14T11:31:07;8.10;;;6.25;;
43877;SDS011;29815;48.184;11.268;2022-11-14T11:34:00;7.43;;;6.72;;
43877;SDS011;29815;48.184;11.268;2022-11-14T11:40:19;7.03;;;5.85;;
43877;SDS011;29815;48.184;11.268;2022-11-14T11:43:13;5.57;;;5.07;;
43877;SDS011;29815;48.184;11.268;2022-11-14T11:46:28;5.90;;;5.32;;
43877;SDS011;29815;48.184;11.268;2022-11-14T11:49:25;5.65;;;5.15;;
43877;SDS011;29815;48.184;11.268;2022-11-14T11:52:29;8.02;;;5.65;;
43877;SDS011;29815;48.184;11.268;2022-11-14T11:55:23;6.22;;;5.55;;
43877;SDS011;29815;48.184;11.268;2022-11-14T11:58:19;6.07;;;5.47;;
43877;SDS011;29815;48.184;11.268;2022-11-14T12:01:13;9.02;;;6.65;;
43877;SDS011;29815;48.184;11.268;2022-11-14T12:04:04;7.50;;;6.07;;
43877;SDS011;29815;48.184;11.268;2022-11-14T12:06:52;8.73;;;7.00;;
43877;SDS011;29815;48.184;11.268;2022-11-14T12:09:50;7.07;;;6.38;;
43877;SDS011;29815;48.184;11.268;2022-11-14T12:13:00;7.50;;;6.80;;
43877;SDS011;29815;48.184;11.268;2022-11-14T12:16:54;5.22;;;4.72;;
43877;SDS011;29815;48.184;11.268;2022-11-14T12:24:32;6.15;;;5.50;;
43877;SDS011;29815;48.184;11.268;2022-11-14T12:28:18;5.90;;;5.00;;
43877;SDS011;29815;48.184;11.268;2022-11-14T12:31:44;6.38;;;5.32;;
43877;SDS011;29815;48.184;11.268;2022-11-14T12:34:36;5.85;;;5.30;;
43877;SDS011;29815;48.184;11.268;2022-11-14T12:37:31;5.93;;;5.30;;
43877;SDS011;29815;48.184;11.268;2022-11-14T12:40:25;6.38;;;5.28;;
43877;SDS011;29815;48.184;11.268;2022-11-14T12:43:31;5.78;;;4.95;;
43877;SDS011;29815;48.184;11.268;2022-11-14T12:46:23;6.32;;;5.50;;
43877;SDS011;29815;48.184;11.268;2022-11-14T12:52:48;7.10;;;5.45;;
43877;SDS011;29815;48.184;11.268;2022-11-14T12:55:52;7.95;;;5.50;;
43877;SDS011;29815;48.184;11.268;2022-11-14T12:59:01;7.18;;;6.47;;
43877;SDS011;29815;48.184;11.268;2022-11-14T13:02:26;7.93;;;5.97;;
43877;SDS011;29815;48.184;11.268;2022-11-14T13:06:06;6.07;;;5.45;;
43877;SDS011;29815;48.184;11.268;2022-11-14T13:12:30;7.10;;;6.05;;
43877;SDS011;29815;48.184;11.268;2022-11-14T13:15:45;7.95;;;6.10;;
43877;SDS011;29815;48.184;11.268;2022-11-14T13:18:57;8.30;;;5.65;;
43877;SDS011;29815;48.184;11.268;2022-11-14T13:22:32;6.15;;;5.55;;
43877;SDS011;29815;48.184;11.268;2022-11-14T13:25:27;6.45;;;5.80;;
43877;SDS011;29815;48.184;11.268;2022-11-14T13:31:45;7.60;;;6.00;;
43877;SDS011;29815;48.184;11.268;2022-11-14T13:34:44;8.10;;;6.20;;
43877;SDS011;29815;48.184;11.268;2022-11-14T13:37:53;7.57;;;6.78;;
43877;SDS011;29815;48.184;11.268;2022-11-14T13:41:07;7.10;;;5.85;;
43877;SDS011;29815;48.184;11.268;2022-11-14T13:48:35;8.25;;;6.88;;
43877;SDS011;29815;48.184;11.268;2022-11-14T13:51:44;7.05;;;6.30;;
43877;SDS011;29815;48.184;11.268;2022-11-14T13:54:33;7.47;;;6.32;;
43877;SDS011;29815;48.184;11.268;2022-11-14T13:57:25;8.07;;;6.90;;
43877;SDS011;29815;48.184;11.268;2022-11-14T14:00:28;8.27;;;6.70;;
43877;SDS011;29815;48.184;11.268;2022-11-14T14:04:02;6.88;;;5.80;;
43877;SDS011;29815;48.184;11.268;2022-11-14T14:07:13;7.97;;;6.68;;
43877;SDS011;29815;48.184;11.268;2022-11-14T14:10:14;6.70;;;5.90;;
43877;SDS011;29815;48.184;11.268;2022-11-14T14:13:22;6.82;;;6.13;;
43877;SDS011;29815;48.184;11.268;2022-11-14T14:16:30;9.95;;;5.82;;
43877;SDS011;29815;48.184;11.268;2022-11-14T14:19:29;8.60;;;7.00;;
43877;SDS011;29815;48.184;11.268;2022-11-14T14:22:34;8.27;;;6.78;;
43877;SDS011;29815;48.184;11.268;2022-11-14T14:25:35;8.05;;;5.05;;
43877;SDS011;29815;48.184;11.268;2022-11-14T14:28:38;6.10;;;5.50;;
43877;SDS011;29815;48.184;11.268;2022-11-14T14:31:39;7.28;;;5.80;;
43877;SDS011;29815;48.184;11.268;2022-11-14T14:34:29;6.22;;;5.50;;
43877;SDS011;29815;48.184;11.268;2022-11-14T14:37:20;6.97;;;5.38;;
43877;SDS011;29815;48.184;11.268;2022-11-14T14:40:20;6.57;;;4.85;;
43877;SDS011;29815;48.184;11.268;2022-11-14T14:43:12;6.63;;;5.63;;
43877;SDS011;29815;48.184;11.268;2022-11-14T14:46:13;6.22;;;5.15;;
43877;SDS011;29815;48.184;11.268;2022-11-14T14:49:02;7.45;;;5.32;;
43877;SDS011;29815;48.184;11.268;2022-11-14T14:51:51;5.82;;;4.78;;
43877;SDS011;29815;48.184;11.268;2022-11-14T14:54:52;6.85;;;5.32;;
43877;SDS011;29815;48.184;11.268;2022-11-14T14:57:41;6.78;;;5.43;;
43877;SDS011;29815;48.184;11.268;2022-11-14T15:00:29;7.20;;;5.20;;
43877;SDS011;29815;48.184;11.268;2022-11-14T15:03:19;5.32;;;4.80;;
43877;SDS011;29815;48.184;11.268;2022-11-14T15:06:17;5.93;;;4.85;;
43877;SDS011;29815;48.184;11.268;2022-11-14T15:09:16;5.85;;;4.63;;
43877;SDS011;29815;48.184;11.268;2022-11-14T15:12:08;5.80;;;5.30;;
43877;SDS011;29815;48.184;11.268;2022-11-14T15:14:56;7.30;;;5.35;;
43877;SDS011;29815;48.184;11.268;2022-11-14T15:17:47;6.63;;;5.43;;
43877;SDS011;29815;48.184;11.268;2022-11-14T15:20:38;11.07;;;5.43;;
43877;SDS011;29815;48.184;11.268;2022-11-14T15:23:27;6.53;;;4.43;;
43877;SDS011;29815;48.184;11.268;2022-11-14T15:26:16;6.05;;;5.10;;
43877;SDS011;29815;48.184;11.268;2022-11-14T15:29:05;5.75;;;5.10;;
43877;SDS011;29815;48.184;11.268;2022-11-14T15:32:04;6.68;;;4.93;;
43877;SDS011;29815;48.184;11.268;2022-11-14T15:35:08;7.10;;;5.38;;
43877;SDS011;29815;48.184;11.268;2022-11-14T15:38:19;6.95;;;5.82;;
43877;SDS011;29815;48.184;11.268;2022-11-14T15:41:28;8.45;;;7.55;;
43877;SDS011;29815;48.184;11.268;2022-11-14T15:44:28;11.05;;;7.57;;
43877;SDS011;29815;48.184;11.268;2022-11-14T15:47:21;8.65;;;7.20;;
43877;SDS011;29815;48.184;11.268;2022-11-14T15:50:22;11.45;;;8.77;;
43877;SDS011;29815;48.184;11.268;2022-11-14T15:53:21;11.98;;;8.45;;
43877;SDS011;29815;48.184;11.268;2022-11-14T15:56:15;11.40;;;8.77;;
43877;SDS011;29815;48.184;11.268;2022-11-14T15:59:03;11.95;;;8.25;;
43877;SDS011;29815;48.184;11.268;2022-11-14T16:01:53;12.50;;;9.00;;
43877;SDS011;29815;48.184;11.268;2022-11-14T16:04:45;12.48;;;8.82;;
43877;SDS011;29815;48.184;11.268;2022-11-14T16:07:36;12.02;;;8.38;;
43877;SDS011;29815;48.184;11.268;2022-11-14T16:10:26;12.38;;;9.27;;
43877;SDS011;29815;48.184;11.268;2022-11-14T16:13:15;13.70;;;8.65;;
43877;SDS011;29815;48.184;11.268;2022-11-14T16:16:04;11.13;;;7.63;;
43877;SDS011;29815;48.184;11.268;2022-11-14T16:18:52;10.73;;;8.40;;
43877;SDS011;29815;48.184;11.268;2022-11-14T16:21:40;13.40;;;8.75;;
43877;SDS011;29815;48.184;11.268;2022-11-14T16:24:29;12.73;;;8.90;;
43877;SDS011;29815;48.184;11.268;2022-11-14T16:27:21;9.85;;;7.88;;
43877;SDS011;29815;48.184;11.268;2022-11-14T16:30:10;11.35;;;9.43;;
43877;SDS011;29815;48.184;11.268;2022-11-14T16:33:02;12.40;;;9.77;;
43877;SDS011;29815;48.184;11.268;2022-11-14T16:35:51;18.33;;;14.80;;
43877;SDS011;29815;48.184;11.268;2022-11-14T16:38:41;11.35;;;8.65;;
43877;SDS011;29815;48.184;11.268;2022-11-14T16:41:36;11.23;;;8.02;;
43877;SDS011;29815;48.184;11.268;2022-11-14T16:44:27;10.20;;;7.95;;
43877;SDS011;29815;48.184;11.268;2022-11-14T16:47:22;12.18;;;8.95;;
43877;SDS011;29815;48.184;11.268;2022-11-14T16:50:10;10.32;;;8.77;;
43877;SDS011;29815;48.184;11.268;2022-11-14T16:52:58;12.48;;;11.18;;
43877;SDS011;29815;48.184;11.268;2022-11-14T16:55:46;19.83;;;13.90;;
43877;SDS011;29815;48.184;11.268;2022-11-14T16:58:34;21.13;;;13.55;;
43877;SDS011;29815;48.184;11.268;2022-11-14T17:01:26;18.95;;;14.02;;
43877;SDS011;29815;48.184;11.268;2022-11-14T17:04:14;18.65;;;12.25;;
43877;SDS011;29815;48.184;11.268;2022-11-14T17:07:02;16.23;;;11.68;;
43877;SDS011;29815;48.184;11.268;2022-11-14T17:09:50;19.35;;;12.00;;
43877;SDS011;29815;48.184;11.268;2022-11-14T17:12:39;18.15;;;13.93;;
43877;SDS011;29815;48.184;11.268;2022-11-14T17:15:27;21.45;;;14.88;;
43877;SDS011;29815;48.184;11.268;2022-11-14T17:18:17;18.38;;;13.20;;
43877;SDS011;29815;48.184;11.268;2022-11-14T17:21:06;19.33;;;15.48;;
43877;SDS011;29815;48.184;11.268;2022-11-14T17:23:58;20.77;;;17.05;;
43877;SDS011;29815;48.184;11.268;2022-11-14T17:26:47;18.73;;;15.32;;